Joshua Tree Natl Park, California
Current Conditions -  °F | °C
As of 11:52 PM on Saturday 25 Oct 2014 (Local Time) from KTRM Reporting Station
Clear Clear  
Wind Chill: 81°   Ceiling: Unl
Heat Index: 81°   Visibility: 10mi
Dew Point: 47°   Wind: 15mph
Humidity: 30%   Direction: 340°NNW
Pressure: 29.86"   Gusts: NA
Location:  33.92°N, 116°W
Report Text: KTRM 260652Z AUTO 34013KT 10SM CLR 27/08 A2986 RMK AO2 SLP112 T02720083 TSNO
Loading
Personal Weather Stations






























Interactive Weather Map
Tropical Storm Tracking
New forecast layout! Learn more

10-Day Weather Forecast

Advertisements
Track Severe Weather on mobile